createdAt,value
2022-10-24T00:01:17.642Z,96509.81
2022-10-24T00:03:44.000Z,96519.38
2022-10-24T00:06:10.390Z,96513.50
2022-10-24T00:08:36.745Z,96520.63
2022-10-24T00:11:03.202Z,96507.47
2022-10-24T00:13:29.576Z,96505.56
2022-10-24T00:15:55.953Z,96498.84
2022-10-24T00:18:22.329Z,96496.81
2022-10-24T00:20:48.705Z,96506.81
2022-10-24T00:23:15.069Z,96495.38
2022-10-24T00:25:41.428Z,96502.13
2022-10-24T00:28:07.784Z,96505.56
2022-10-24T00:30:34.149Z,96510.88
2022-10-24T00:33:00.534Z,96506.66
2022-10-24T00:35:26.884Z,96514.94
2022-10-24T00:37:53.259Z,96520.00
2022-10-24T00:40:19.634Z,96515.72
2022-10-24T00:42:46.000Z,96508.53
2022-10-24T00:45:12.380Z,96499.75
2022-10-24T00:47:38.744Z,96503.56
2022-10-24T00:50:05.114Z,96496.69
2022-10-24T00:52:31.476Z,96494.78
2022-10-24T00:54:57.838Z,96495.19
2022-10-24T00:57:24.256Z,96513.53
2022-10-24T00:59:50.639Z,96504.75
2022-10-24T01:02:17.014Z,96512.81
2022-10-24T01:04:43.378Z,96518.53
2022-10-24T01:07:09.735Z,96538.66
2022-10-24T01:09:36.096Z,96531.22
2022-10-24T01:12:02.455Z,96523.84
2022-10-24T01:14:28.833Z,96528.81
2022-10-24T01:16:55.199Z,96524.97
2022-10-24T01:19:21.661Z,96536.75
2022-10-24T01:21:48.016Z,96528.94
2022-10-24T01:24:14.367Z,96546.38
2022-10-24T01:26:40.738Z,96554.72
2022-10-24T01:29:07.112Z,96548.72
2022-10-24T01:31:33.478Z,96555.88
2022-10-24T01:33:59.836Z,96549.19
2022-10-24T01:36:26.205Z,96547.19
2022-10-24T01:38:52.565Z,96550.94
2022-10-24T01:41:18.932Z,96547.50
2022-10-24T01:43:45.337Z,96543.69
2022-10-24T01:46:11.717Z,96540.97
2022-10-24T01:48:38.078Z,96546.38
2022-10-24T01:51:04.445Z,96545.94
2022-10-24T01:53:30.801Z,96557.34
2022-10-24T01:55:57.161Z,96558.88
2022-10-24T01:58:23.536Z,96558.47
2022-10-24T02:00:49.929Z,96565.50
2022-10-24T02:03:16.307Z,96541.34
2022-10-24T02:05:42.674Z,96513.94
2022-10-24T02:08:09.201Z,96533.53
2022-10-24T02:10:35.560Z,96521.69
2022-10-24T02:13:01.917Z,96528.50
2022-10-24T02:15:28.291Z,96521.59
2022-10-24T02:17:54.659Z,96514.09
2022-10-24T02:20:21.030Z,96511.03
2022-10-24T02:22:47.402Z,96509.03
2022-10-24T02:25:13.757Z,96511.03
2022-10-24T02:27:40.125Z,96507.97
2022-10-24T02:30:06.485Z,96494.72
2022-10-24T02:32:32.852Z,96491.91
2022-10-24T02:34:59.227Z,96491.56
2022-10-24T02:37:25.583Z,96497.78
2022-10-24T02:39:51.941Z,96513.00
2022-10-24T02:42:18.354Z,96516.53
2022-10-24T02:44:44.723Z,96498.56
2022-10-24T02:47:11.081Z,96499.56
2022-10-24T02:49:37.448Z,96487.78
2022-10-24T02:52:03.818Z,96505.53
2022-10-24T02:54:30.178Z,96511.22
2022-10-24T02:56:56.632Z,96502.44
2022-10-24T02:59:23.003Z,96509.66
2022-10-24T03:01:49.396Z,96505.41
2022-10-24T03:04:15.822Z,96490.63
2022-10-24T03:06:42.188Z,96481.03
2022-10-24T03:09:08.551Z,96486.03
2022-10-24T03:11:34.912Z,96498.16
2022-10-24T03:14:01.610Z,96489.09
2022-10-24T03:16:27.973Z,96481.88
2022-10-24T03:18:54.338Z,96478.03
2022-10-24T03:21:20.697Z,96476.97
2022-10-24T03:23:47.058Z,96465.44
2022-10-24T03:26:13.416Z,96459.75
2022-10-24T03:28:39.782Z,96445.25
2022-10-24T03:31:06.149Z,96440.69
2022-10-24T03:33:32.515Z,96433.06
2022-10-24T03:35:58.880Z,96425.03
2022-10-24T03:38:25.246Z,96435.63
2022-10-24T03:40:51.618Z,96439.81
2022-10-24T03:43:18.007Z,96436.00
2022-10-24T03:45:44.382Z,96424.25
2022-10-24T03:48:10.727Z,96435.69
2022-10-24T03:50:37.095Z,96434.16
2022-10-24T03:53:03.467Z,96429.94
2022-10-24T03:55:29.830Z,96430.00
2022-10-24T03:57:56.206Z,96438.66
2022-10-24T04:00:22.607Z,96433.38
2022-10-24T04:02:48.987Z,96442.88
2022-10-24T04:05:15.350Z,96433.66
2022-10-24T04:07:41.954Z,96437.53
2022-10-24T04:10:08.466Z,96435.22
2022-10-24T04:12:34.839Z,96435.63
2022-10-24T04:15:04.109Z,96438.28
2022-10-24T04:17:31.483Z,96437.13
2022-10-24T04:19:57.836Z,96442.88
2022-10-24T04:22:24.201Z,96436.69
2022-10-24T04:24:50.597Z,96453.88
2022-10-24T04:27:16.957Z,96428.75
2022-10-24T04:29:43.320Z,96430.28
2022-10-24T04:32:09.695Z,96437.88
2022-10-24T04:34:36.051Z,96439.78
2022-10-24T04:37:02.457Z,96457.34
2022-10-24T04:39:28.824Z,96461.94
2022-10-24T04:41:55.197Z,96442.09
2022-10-24T04:44:21.557Z,96433.72
2022-10-24T04:46:51.349Z,96428.38
2022-10-24T04:49:17.862Z,96452.69
2022-10-24T04:51:44.243Z,96452.34
2022-10-24T04:54:10.611Z,96445.03
2022-10-24T04:56:36.974Z,96449.25
2022-10-24T04:59:03.340Z,96447.31
2022-10-24T05:01:29.765Z,96443.56
2022-10-24T05:03:56.216Z,96443.16
2022-10-24T05:06:22.618Z,96429.59
2022-10-24T05:08:48.976Z,96413.47
2022-10-24T05:11:15.338Z,96419.53
2022-10-24T05:13:41.705Z,96433.63
2022-10-24T05:16:08.068Z,96434.28
2022-10-24T05:18:34.522Z,96430.84
2022-10-24T05:21:00.889Z,96424.78
2022-10-24T05:23:27.258Z,96420.16
2022-10-24T05:25:53.642Z,96404.16
2022-10-24T05:28:20.052Z,96414.47
2022-10-24T05:30:46.413Z,96404.94
2022-10-24T05:33:12.792Z,96403.03
2022-10-24T05:35:39.151Z,96387.38
2022-10-24T05:38:05.614Z,96390.88
2022-10-24T05:40:31.974Z,96374.88
2022-10-24T05:42:58.341Z,96376.00
2022-10-24T05:45:24.714Z,96371.50
2022-10-24T05:47:51.099Z,96358.88
2022-10-24T05:50:17.455Z,96357.75
2022-10-24T05:52:46.978Z,96368.41
2022-10-24T05:55:17.001Z,96371.03
2022-10-24T05:57:44.638Z,96382.53
2022-10-24T06:00:11.245Z,96385.19
2022-10-24T06:02:37.670Z,96382.84
2022-10-24T06:05:04.074Z,96389.22
2022-10-24T06:07:30.451Z,96393.06
2022-10-24T06:09:56.819Z,96399.81
2022-10-24T06:12:23.206Z,96392.84
2022-10-24T06:14:49.552Z,96388.28
2022-10-24T06:17:15.900Z,96412.63
2022-10-24T06:19:42.630Z,96411.09
2022-10-24T06:22:09.116Z,96417.84
2022-10-24T06:24:35.482Z,96408.78
2022-10-24T06:27:01.850Z,96392.00
2022-10-24T06:29:28.214Z,96388.50
2022-10-24T06:31:54.586Z,96395.75
2022-10-24T06:37:07.222Z,96410.19
2022-10-24T06:39:33.587Z,96415.22
2022-10-24T06:41:59.947Z,96414.84
2022-10-24T06:44:26.305Z,96423.19
2022-10-24T06:46:52.689Z,96416.66
2022-10-24T06:49:19.041Z,96422.41
2022-10-24T06:51:45.406Z,96420.94
2022-10-24T06:54:11.784Z,96432.38
2022-10-24T06:56:38.170Z,96427.69
2022-10-24T06:59:04.528Z,96428.50
2022-10-24T07:01:31.053Z,96431.94
2022-10-24T07:03:57.639Z,96440.72
2022-10-24T07:06:24.075Z,96435.03
2022-10-24T07:08:50.458Z,96436.09
2022-10-24T07:11:16.821Z,96438.84
2022-10-24T07:13:43.198Z,96442.31
2022-10-24T07:16:09.551Z,96461.00
2022-10-24T07:18:35.904Z,96458.75
2022-10-24T07:21:02.287Z,96459.88
2022-10-24T07:23:28.650Z,96457.50
2022-10-24T07:25:55.016Z,96471.94
2022-10-24T07:28:21.388Z,96462.06
2022-10-24T07:30:47.752Z,96456.72
2022-10-24T07:33:15.540Z,96454.84
2022-10-24T07:35:43.194Z,96456.31
2022-10-24T07:38:11.991Z,96448.72
2022-10-24T07:40:40.996Z,96468.84
2022-10-24T07:43:08.663Z,96480.00
2022-10-24T07:45:36.432Z,96482.28
2022-10-24T07:48:04.087Z,96477.28
2022-10-24T07:50:31.744Z,96462.75
2022-10-24T07:52:59.415Z,96470.84
2022-10-24T07:55:25.776Z,96474.28
2022-10-24T07:57:52.132Z,96472.00
2022-10-24T08:00:18.506Z,96466.66
2022-10-24T08:02:44.987Z,96465.22
2022-10-24T08:05:11.416Z,96472.78
2022-10-24T08:07:37.788Z,96470.88
2022-10-24T08:10:04.148Z,96461.72
2022-10-24T08:12:30.689Z,96468.56
2022-10-24T08:14:57.069Z,96486.88
2022-10-24T08:17:23.437Z,96494.19
2022-10-24T08:19:49.789Z,96493.00
2022-10-24T08:22:16.153Z,96495.72
2022-10-24T08:24:42.519Z,96498.75
2022-10-24T08:27:08.880Z,96520.91
2022-10-24T08:29:35.245Z,96547.94
2022-10-24T08:32:01.587Z,96593.66
2022-10-24T08:34:27.943Z,96604.25
2022-10-24T08:36:54.326Z,96621.44
2022-10-24T08:39:20.686Z,96623.00
2022-10-24T08:41:47.037Z,96627.56
2022-10-24T08:44:13.425Z,96634.00
2022-10-24T08:46:39.775Z,96638.13
2022-10-24T08:49:06.145Z,96656.41
2022-10-24T08:51:32.498Z,96661.44
2022-10-24T08:53:58.849Z,96626.78
2022-10-24T08:56:25.222Z,96633.66
2022-10-24T08:58:51.588Z,96639.34
2022-10-24T09:01:18.015Z,96634.00
2022-10-24T09:03:55.749Z,96608.44
2022-10-24T09:06:23.134Z,96608.44
2022-10-24T09:08:49.508Z,96624.41
2022-10-24T09:11:15.873Z,96631.63
2022-10-24T09:13:42.232Z,96670.13
2022-10-24T09:16:08.604Z,96642.28
2022-10-24T09:18:35.010Z,96631.19
2022-10-24T09:21:01.375Z,96633.16
2022-10-24T09:23:27.737Z,96632.03
2022-10-24T09:25:54.114Z,96615.34
2022-10-24T09:28:20.470Z,96606.56
2022-10-24T09:30:46.918Z,96628.19
2022-10-24T09:33:13.284Z,96630.13
2022-10-24T09:35:39.645Z,96654.84
2022-10-24T09:38:06.005Z,96671.69
2022-10-24T09:40:32.360Z,96673.84
2022-10-24T09:42:58.711Z,96646.50
2022-10-24T09:45:25.082Z,96606.91
2022-10-24T09:47:51.450Z,96571.13
2022-10-24T09:50:17.867Z,96547.41
2022-10-24T09:52:44.228Z,96574.84
2022-10-24T09:55:10.596Z,96610.97
2022-10-24T09:57:36.956Z,96648.81
2022-10-24T10:00:03.322Z,96646.13
2022-10-24T10:02:29.776Z,96646.91
2022-10-24T10:04:56.177Z,96636.25
2022-10-24T10:07:22.527Z,96623.19
2022-10-24T10:09:51.588Z,96614.13
2022-10-24T10:12:20.517Z,96623.63
2022-10-24T10:14:46.896Z,96607.13
2022-10-24T10:17:13.260Z,96605.09
2022-10-24T10:19:39.634Z,96608.16
2022-10-24T10:22:05.991Z,96608.59
2022-10-24T10:24:32.344Z,96604.81
2022-10-24T10:26:58.704Z,96601.03
2022-10-24T10:29:25.089Z,96608.31
2022-10-24T10:31:51.450Z,96604.09
2022-10-24T10:34:20.474Z,96603.31
2022-10-24T10:36:47.972Z,96605.97
2022-10-24T10:39:14.329Z,96584.59
2022-10-24T10:41:40.709Z,96575.03
2022-10-24T10:44:07.495Z,96568.31
2022-10-24T10:46:33.855Z,96572.47
2022-10-24T10:49:00.231Z,96573.50
2022-10-24T10:51:26.589Z,96577.56
2022-10-24T10:53:52.946Z,96571.13
2022-10-24T10:56:19.300Z,96576.78
2022-10-24T10:58:45.666Z,96575.66
2022-10-24T11:01:12.183Z,96579.41
2022-10-24T11:03:38.623Z,96592.31
2022-10-24T11:06:04.982Z,96596.09
2022-10-24T11:08:31.344Z,96596.94
2022-10-24T11:10:57.700Z,96613.63
2022-10-24T11:13:24.064Z,96615.47
2022-10-24T11:15:50.417Z,96635.59
2022-10-24T11:18:16.779Z,96629.09
2022-10-24T11:20:43.132Z,96626.13
2022-10-24T11:23:09.515Z,96632.25
2022-10-24T11:25:35.881Z,96631.53
2022-10-24T11:28:02.300Z,96634.97
2022-10-24T11:30:28.677Z,96635.41
2022-10-24T11:32:55.040Z,96637.31
2022-10-24T11:35:21.406Z,96616.66
2022-10-24T11:37:47.808Z,96595.88
2022-10-24T11:40:14.241Z,96614.91
2022-10-24T11:42:40.693Z,96629.78
2022-10-24T11:45:07.229Z,96634.69
2022-10-24T11:47:33.610Z,96641.84
2022-10-24T11:49:59.984Z,96650.28
2022-10-24T11:52:26.341Z,96654.13
2022-10-24T11:54:52.703Z,96656.13
2022-10-24T11:57:19.084Z,96644.25
2022-10-24T11:59:45.443Z,96651.97
2022-10-24T12:02:11.903Z,96666.00
2022-10-24T12:04:38.330Z,96642.00
2022-10-24T12:07:04.698Z,96643.56
2022-10-24T12:09:33.627Z,96642.69
2022-10-24T12:12:00.945Z,96658.34
2022-10-24T12:14:27.320Z,96636.69
2022-10-24T12:16:53.921Z,96638.56
2022-10-24T12:19:20.273Z,96656.47
2022-10-24T12:21:46.642Z,96631.63
2022-10-24T12:24:13.013Z,96638.75
2022-10-24T12:26:39.372Z,96655.69
2022-10-24T12:29:05.729Z,96671.19
2022-10-24T12:31:32.987Z,96687.19
2022-10-24T12:33:59.489Z,96699.75
2022-10-24T12:36:25.866Z,96707.75
2022-10-24T12:38:52.221Z,96701.31
2022-10-24T12:41:18.572Z,96678.56
2022-10-24T12:43:45.027Z,96681.94
2022-10-24T12:46:13.321Z,96674.41
2022-10-24T12:48:39.735Z,96681.31
2022-10-24T12:51:06.106Z,96681.25
2022-10-24T12:53:32.465Z,96669.47
2022-10-24T12:55:58.831Z,96658.84
2022-10-24T12:58:25.210Z,96655.91
2022-10-24T13:00:51.573Z,96654.63
2022-10-24T13:03:17.924Z,96661.16
2022-10-24T13:05:44.298Z,96656.19
2022-10-24T13:08:10.654Z,96655.75
2022-10-24T13:10:37.003Z,96665.25
2022-10-24T13:13:03.407Z,96660.75
2022-10-24T13:15:29.832Z,96639.75
2022-10-24T13:17:56.209Z,96639.34
2022-10-24T13:20:22.581Z,96653.84
2022-10-24T13:22:48.958Z,96661.03
2022-10-24T13:25:15.313Z,96651.56
2022-10-24T13:27:41.674Z,96642.78
2022-10-24T13:30:08.056Z,96634.06
2022-10-24T13:32:34.413Z,96637.50
2022-10-24T13:35:00.781Z,96646.56
2022-10-24T13:37:27.151Z,96644.69
2022-10-24T13:39:53.507Z,96633.28
2022-10-24T13:42:19.872Z,96631.84
2022-10-24T13:44:46.218Z,96626.84
2022-10-24T13:47:12.578Z,96611.66
2022-10-24T13:49:38.947Z,96619.66
2022-10-24T13:52:05.301Z,96627.19
2022-10-24T13:54:31.671Z,96636.75
2022-10-24T13:57:01.278Z,96653.50
2022-10-24T13:59:28.659Z,96653.16
2022-10-24T14:01:55.030Z,96660.41
2022-10-24T14:04:21.392Z,96667.28
2022-10-24T14:06:47.755Z,96663.84
2022-10-24T14:09:14.267Z,96660.75
2022-10-24T14:11:40.641Z,96668.34
2022-10-24T14:14:09.216Z,96661.16
2022-10-24T14:16:37.367Z,96661.03
2022-10-24T14:19:03.733Z,96661.44
2022-10-24T14:21:30.083Z,96659.56
2022-10-24T14:23:56.444Z,96660.34
2022-10-24T14:26:22.804Z,96669.47
2022-10-24T14:28:50.314Z,96661.44
2022-10-24T14:31:17.194Z,96651.19
2022-10-24T14:33:43.542Z,96624.50
2022-10-24T14:36:09.906Z,96639.50
2022-10-24T14:38:36.265Z,96640.53
2022-10-24T14:41:08.953Z,96657.66
2022-10-24T14:43:35.879Z,96646.56
2022-10-24T14:46:02.258Z,96639.69
2022-10-24T14:48:28.637Z,96648.91
2022-10-24T14:50:55.014Z,96637.44
2022-10-24T14:53:21.368Z,96639.00
2022-10-24T14:55:47.720Z,96646.13
2022-10-24T14:58:14.091Z,96654.56
2022-10-24T15:00:40.567Z,96648.41
2022-10-24T15:03:06.950Z,96647.63
2022-10-24T15:05:33.309Z,96648.13
2022-10-24T15:08:24.837Z,96651.47
2022-10-24T15:10:46.034Z,96643.47
2022-10-24T15:13:12.394Z,96638.56
2022-10-24T15:15:38.758Z,96626.78
2022-10-24T15:18:05.137Z,96631.34
2022-10-24T15:20:31.498Z,96643.56
2022-10-24T15:22:57.867Z,96643.19
2022-10-24T15:25:24.243Z,96636.34
2022-10-24T15:27:50.605Z,96634.41
2022-10-24T15:30:17.062Z,96645.50
2022-10-24T15:32:43.420Z,96647.41
2022-10-24T15:35:09.787Z,96645.03
2022-10-24T15:37:36.156Z,96656.13
2022-10-24T15:40:02.522Z,96655.34
2022-10-24T15:42:28.886Z,96663.34
2022-10-24T15:44:55.254Z,96658.34
2022-10-24T15:47:21.617Z,96654.13
2022-10-24T15:49:47.965Z,96661.09
2022-10-24T15:52:14.316Z,96662.13
2022-10-24T15:54:40.774Z,96649.50
2022-10-24T15:57:07.143Z,96655.34
2022-10-24T15:59:33.502Z,96645.78
2022-10-24T16:01:59.875Z,96653.38
2022-10-24T16:04:26.235Z,96660.19
2022-10-24T16:06:52.608Z,96670.13
2022-10-24T16:09:18.978Z,96658.28
2022-10-24T16:11:45.339Z,96667.75
2022-10-24T16:14:11.702Z,96670.06
2022-10-24T16:16:38.067Z,96665.19
2022-10-24T16:19:04.443Z,96672.41
2022-10-24T16:21:30.792Z,96670.41
2022-10-24T16:23:57.168Z,96690.38
2022-10-24T16:26:23.550Z,96689.53
2022-10-24T16:28:49.910Z,96693.75
2022-10-24T16:31:16.277Z,96700.25
2022-10-24T16:33:42.628Z,96695.34
2022-10-24T16:36:08.974Z,96692.97
2022-10-24T16:38:35.342Z,96693.03
2022-10-24T16:41:01.721Z,96698.34
2022-10-24T16:43:28.178Z,96703.69
2022-10-24T16:45:54.538Z,96704.91
2022-10-24T16:48:20.903Z,96700.97
2022-10-24T16:50:47.270Z,96699.47
2022-10-24T16:53:13.639Z,96701.75
2022-10-24T16:55:39.999Z,96701.81
2022-10-24T16:58:06.348Z,96698.03
2022-10-24T17:00:32.866Z,96694.91
2022-10-24T17:02:59.258Z,96693.81
2022-10-24T17:05:25.621Z,96679.69
2022-10-24T17:07:52.001Z,96682.69
2022-10-24T17:10:20.762Z,96687.63
2022-10-24T17:12:50.155Z,96688.75
2022-10-24T17:15:18.134Z,96697.88
2022-10-24T17:17:47.765Z,96701.25
2022-10-24T17:20:14.388Z,96697.88
2022-10-24T17:22:40.745Z,96704.31
2022-10-24T17:25:07.112Z,96706.91
2022-10-24T17:27:33.466Z,96701.31
2022-10-24T17:29:59.826Z,96707.47
2022-10-24T17:32:26.199Z,96706.97
2022-10-24T17:34:52.588Z,96716.53
2022-10-24T17:37:18.946Z,96727.91
2022-10-24T17:39:45.838Z,96721.81
2022-10-24T17:42:12.332Z,96728.66
2022-10-24T17:44:39.140Z,96723.69
2022-10-24T17:47:05.500Z,96724.88
2022-10-24T17:49:31.857Z,96729.03
2022-10-24T17:51:58.230Z,96721.53
2022-10-24T17:54:24.591Z,96714.63
2022-10-24T17:56:50.963Z,96718.41
2022-10-24T17:59:17.323Z,96719.63
2022-10-24T18:01:43.708Z,96714.97
2022-10-24T18:04:10.115Z,96725.38
2022-10-24T18:06:39.462Z,96718.16
2022-10-24T18:09:09.621Z,96717.81
2022-10-24T18:11:35.983Z,96727.97
2022-10-24T18:14:02.349Z,96735.97
2022-10-24T18:16:30.626Z,96737.44
2022-10-24T18:18:57.259Z,96741.25
2022-10-24T18:21:23.612Z,96739.75
2022-10-24T18:23:49.982Z,96739.41
2022-10-24T18:26:16.345Z,96740.88
2022-10-24T18:28:42.704Z,96733.59
2022-10-24T18:31:09.068Z,96745.69
2022-10-24T18:33:35.434Z,96740.81
2022-10-24T18:36:01.823Z,96743.13
2022-10-24T18:38:28.186Z,96744.66
2022-10-24T18:40:54.545Z,96747.47
2022-10-24T18:43:20.910Z,96754.91
2022-10-24T18:45:47.291Z,96746.91
2022-10-24T18:48:13.784Z,96753.03
2022-10-24T18:50:40.129Z,96741.09
2022-10-24T18:53:06.494Z,96743.97
2022-10-24T18:55:32.842Z,96747.31
2022-10-24T18:57:59.206Z,96742.00
2022-10-24T19:00:25.574Z,96755.69
2022-10-24T19:02:51.955Z,96748.81
2022-10-24T19:05:18.322Z,96754.13
2022-10-24T19:07:45.102Z,96757.66
2022-10-24T19:10:11.873Z,96749.91
2022-10-24T19:12:38.236Z,96743.47
2022-10-24T19:15:04.592Z,96746.56
2022-10-24T19:17:30.965Z,96750.75
2022-10-24T19:19:57.319Z,96746.66
2022-10-24T19:22:23.675Z,96752.25
2022-10-24T19:24:50.039Z,96748.47
2022-10-24T19:27:16.406Z,96746.47
2022-10-24T19:29:42.776Z,96753.38
2022-10-24T19:32:09.135Z,96755.25
2022-10-24T19:34:35.490Z,96757.16
2022-10-24T19:37:01.859Z,96757.41
2022-10-24T19:39:31.566Z,96761.91
2022-10-24T19:42:00.216Z,96768.84
2022-10-24T19:44:26.594Z,96758.81
2022-10-24T19:46:52.957Z,96759.56
2022-10-24T19:49:19.334Z,96772.22
2022-10-24T19:51:45.710Z,96762.75
2022-10-24T19:54:12.162Z,96758.91
2022-10-24T19:56:38.518Z,96757.41
2022-10-24T19:59:04.869Z,96754.81
2022-10-24T20:01:31.341Z,96748.81
2022-10-24T20:03:57.827Z,96749.47
2022-10-24T20:06:24.202Z,96743.75
2022-10-24T20:08:50.564Z,96747.53
2022-10-24T20:11:16.930Z,96745.28
2022-10-24T20:13:43.308Z,96753.19
2022-10-24T20:16:09.671Z,96753.03
2022-10-24T20:18:36.116Z,96758.34
2022-10-24T20:21:02.573Z,96755.97
2022-10-24T20:23:28.936Z,96749.91
2022-10-24T20:25:55.291Z,96757.06
2022-10-24T20:28:21.652Z,96766.63
2022-10-24T20:30:48.057Z,96768.59
2022-10-24T20:33:14.431Z,96774.34
2022-10-24T20:35:40.786Z,96773.66
2022-10-24T20:38:07.151Z,96781.38
2022-10-24T20:40:33.508Z,96788.97
2022-10-24T20:42:59.877Z,96787.00
2022-10-24T20:45:26.246Z,96807.47
2022-10-24T20:47:52.600Z,96801.03
2022-10-24T20:50:18.994Z,96802.06
2022-10-24T20:52:45.751Z,96800.53
2022-10-24T20:55:24.986Z,96797.16
2022-10-24T20:57:58.770Z,96803.25
2022-10-24T21:00:25.121Z,96806.34
2022-10-24T21:02:51.477Z,96808.59
2022-10-24T21:05:17.840Z,96795.25
2022-10-24T21:07:44.212Z,96799.13
2022-10-24T21:10:10.575Z,96804.81
2022-10-24T21:12:36.935Z,96811.09
2022-10-24T21:15:03.300Z,96808.50
2022-10-24T21:17:29.665Z,96820.97
2022-10-24T21:19:56.068Z,96818.81
2022-10-24T21:22:22.443Z,96827.78
2022-10-24T21:24:48.792Z,96824.00
2022-10-24T21:27:15.156Z,96819.00
2022-10-24T21:29:41.527Z,96822.38
2022-10-24T21:32:07.897Z,96814.69
2022-10-24T21:34:34.926Z,96825.81
2022-10-24T21:37:01.556Z,96831.47
2022-10-24T21:39:27.908Z,96833.69
2022-10-24T21:41:54.260Z,96836.38
2022-10-24T21:44:20.649Z,96832.94
2022-10-24T21:46:47.015Z,96840.41
2022-10-24T21:49:13.374Z,96850.41
2022-10-24T21:51:39.737Z,96861.06
2022-10-24T21:54:06.089Z,96854.25
2022-10-24T21:56:32.441Z,96860.28
2022-10-24T21:58:58.865Z,96862.88
2022-10-24T22:01:25.359Z,96861.22
2022-10-24T22:03:51.776Z,96851.34
2022-10-24T22:06:18.158Z,96855.81
2022-10-24T22:08:44.538Z,96857.38
2022-10-24T22:11:10.919Z,96862.25
2022-10-24T22:13:37.273Z,96856.59
2022-10-24T22:16:03.637Z,96854.72
2022-10-24T22:18:30.013Z,96866.47
2022-10-24T22:20:56.375Z,96875.34
2022-10-24T22:23:22.732Z,96874.56
2022-10-24T22:25:49.113Z,96875.34
2022-10-24T22:28:15.464Z,96860.56
2022-10-24T22:30:41.826Z,96869.75
2022-10-24T22:33:08.192Z,96865.56
2022-10-24T22:35:34.558Z,96867.66
2022-10-24T22:38:00.922Z,96884.88
2022-10-24T22:40:27.298Z,96887.56
2022-10-24T22:42:53.654Z,96881.69
2022-10-24T22:45:20.007Z,96893.16
2022-10-24T22:47:46.386Z,96888.16
2022-10-24T22:50:12.745Z,96891.44
2022-10-24T22:52:39.120Z,96896.00
2022-10-24T22:55:07.259Z,96897.88
2022-10-24T23:00:21.981Z,96897.00
2022-10-24T23:02:48.521Z,96893.22
2022-10-24T23:05:15.122Z,96893.59
2022-10-24T23:07:41.485Z,96892.13
2022-10-24T23:10:07.849Z,96887.13
2022-10-24T23:12:34.210Z,96884.44
2022-10-24T23:15:00.604Z,96893.06
2022-10-24T23:17:27.052Z,96892.03
2022-10-24T23:19:53.405Z,96895.72
2022-10-24T23:22:19.764Z,96897.38
2022-10-24T23:24:46.130Z,96906.81
2022-10-24T23:27:12.506Z,96900.69
2022-10-24T23:29:38.874Z,96898.03
2022-10-24T23:32:05.228Z,96903.72
2022-10-24T23:34:31.579Z,96904.47
2022-10-24T23:36:57.936Z,96909.16
2022-10-24T23:39:24.293Z,96895.81
2022-10-24T23:41:50.656Z,96900.81
2022-10-24T23:44:17.013Z,96893.59
2022-10-24T23:46:43.370Z,96895.47
2022-10-24T23:49:09.742Z,96905.69
2022-10-24T23:51:36.093Z,96917.91
2022-10-24T23:54:02.438Z,96913.78
2022-10-24T23:56:28.802Z,96920.59
2022-10-24T23:58:55.160Z,96917.13
